Time;durP1;ratioP1;P1;durP2;ratioP2;P2;SDS_P1;SDS_P2;PMS_P1;PMS_P2;Temp;Humidity;BMP_temperature;BMP_pressure;BME280_temperature;BME280_humidity;BME280_pressure;Samples;Min_cycle;Max_cycle;Signal;HPM_P1;HPM_P2
2023/03/12 00:02:13;;;;;;;7.03;1.80;;;0.10;99.90;;;;;;4987913;28;20220;-83
2023/03/12 00:04:38;;;;;;;2.40;1.37;;;0.10;99.90;;;;;;4974454;28;20616;-84
2023/03/12 00:07:05;;;;;;;4.10;1.77;;;0.10;99.90;;;;;;4976977;28;20281;-84
2023/03/12 00:09:35;;;;;;;3.20;1.73;;;0.10;99.90;;;;;;4971956;28;20572;-84
2023/03/12 00:12:01;;;;;;;2.43;1.70;;;0.10;99.90;;;;;;4969704;28;20196;-84
2023/03/12 00:14:27;;;;;;;4.77;1.80;;;0.10;99.90;;;;;;4983318;28;20517;-84
2023/03/12 00:16:54;;;;;;;4.57;1.53;;;0.10;99.90;;;;;;4980946;28;20535;-84
2023/03/12 00:19:20;;;;;;;3.83;1.60;;;0.10;99.90;;;;;;4972709;28;20224;-84
2023/03/12 00:21:46;;;;;;;3.80;1.57;;;0.20;99.90;;;;;;4987149;28;20689;-84
2023/03/12 00:24:11;;;;;;;2.87;1.47;;;0.20;99.90;;;;;;4971128;28;20219;-83
2023/03/12 00:26:37;;;;;;;2.50;1.60;;;0.10;99.90;;;;;;4980974;28;20189;-82
2023/03/12 00:29:03;;;;;;;4.03;1.83;;;0.10;99.90;;;;;;4984931;28;20372;-84
2023/03/12 00:31:31;;;;;;;2.77;1.30;;;0.10;99.90;;;;;;4983809;28;20239;-84
2023/03/12 00:33:58;;;;;;;3.23;1.53;;;0.10;99.90;;;;;;4970599;28;20270;-84
2023/03/12 00:36:26;;;;;;;5.10;1.57;;;0.10;99.90;;;;;;4975605;28;20580;-84
2023/03/12 00:38:52;;;;;;;3.50;1.60;;;0.10;99.90;;;;;;4975401;28;20246;-84
2023/03/12 00:41:19;;;;;;;5.00;1.60;;;0.10;99.90;;;;;;4974346;28;20342;-84
2023/03/12 00:43:47;;;;;;;5.83;1.80;;;0.10;99.90;;;;;;4971778;28;20549;-83
2023/03/12 00:46:13;;;;;;;4.07;1.60;;;0.10;99.90;;;;;;4971756;28;20645;-83
2023/03/12 00:48:40;;;;;;;4.53;1.83;;;0.10;99.90;;;;;;4975750;28;20243;-83
2023/03/12 00:51:06;;;;;;;5.70;1.87;;;0.10;99.90;;;;;;4975205;28;20278;-84
2023/03/12 00:53:32;;;;;;;5.87;1.60;;;0.10;99.90;;;;;;4985037;28;20196;-83
2023/03/12 00:55:57;;;;;;;6.10;1.60;;;0.10;99.90;;;;;;4986516;28;20214;-84
2023/03/12 00:58:23;;;;;;;5.97;1.70;;;0.10;99.90;;;;;;4991857;28;20191;-83
2023/03/12 01:00:49;;;;;;;4.20;1.60;;;0.20;99.90;;;;;;4988489;28;20208;-84
2023/03/12 01:03:15;;;;;;;3.07;1.53;;;0.20;99.90;;;;;;4987052;28;20192;-84
2023/03/12 01:05:40;;;;;;;3.33;1.20;;;0.20;99.90;;;;;;4977564;28;20200;-84
2023/03/12 01:08:07;;;;;;;5.60;1.63;;;0.20;99.90;;;;;;4972261;28;20220;-84
2023/03/12 01:10:34;;;;;;;10.17;1.80;;;0.20;99.90;;;;;;4974574;28;20202;-83
2023/03/12 01:12:59;;;;;;;2.20;1.20;;;0.20;99.90;;;;;;4974271;28;20193;-84
2023/03/12 01:15:26;;;;;;;3.37;1.47;;;0.10;99.90;;;;;;4963023;28;20251;-84
2023/03/12 01:17:52;;;;;;;3.63;1.60;;;0.20;99.90;;;;;;4992172;28;20188;-84
2023/03/12 01:20:18;;;;;;;7.30;1.40;;;0.10;99.90;;;;;;4974995;28;20202;-84
2023/03/12 01:22:44;;;;;;;5.00;1.60;;;0.10;99.90;;;;;;4992743;28;20188;-84
2023/03/12 01:25:10;;;;;;;5.70;1.60;;;0.10;99.90;;;;;;4972186;28;20323;-84
2023/03/12 01:27:36;;;;;;;4.70;1.53;;;0.10;99.90;;;;;;4969684;28;20282;-84
2023/03/12 01:30:03;;;;;;;2.63;1.20;;;0.10;99.90;;;;;;5428399;22;20321;-85
2023/03/12 01:32:29;;;;;;;5.93;1.30;;;0.10;99.90;;;;;;5012857;28;20286;-83
2023/03/12 01:34:57;;;;;;;6.50;1.30;;;0.10;99.90;;;;;;5012750;28;20266;-83
2023/03/12 01:37:22;;;;;;;10.50;1.63;;;0.00;99.90;;;;;;5012724;28;20346;-83
2023/03/12 01:39:48;;;;;;;2.60;1.57;;;0.00;99.90;;;;;;5013587;28;20646;-84
2023/03/12 01:42:13;;;;;;;6.60;1.50;;;0.00;99.90;;;;;;5015360;28;20205;-83
2023/03/12 01:44:56;;;;;;;4.43;1.40;;;0.00;99.90;;;;;;5015214;28;20321;-84
2023/03/12 01:47:22;;;;;;;3.47;1.40;;;0.00;99.90;;;;;;5015513;28;20183;-85
2023/03/12 01:49:51;;;;;;;3.90;1.40;;;0.00;99.90;;;;;;5015221;28;20313;-85
2023/03/12 01:52:28;;;;;;;2.10;1.50;;;-0.10;99.90;;;;;;5015235;28;20207;-84
2023/03/12 01:55:02;;;;;;;2.77;1.40;;;-0.10;99.90;;;;;;5015465;28;20178;-84
2023/03/12 01:57:36;;;;;;;2.97;1.40;;;-0.10;99.90;;;;;;5015132;28;20164;-85
2023/03/12 02:00:24;;;;;;;2.17;1.30;;;-0.10;99.90;;;;;;5014396;28;20498;-84
2023/03/12 02:02:53;;;;;;;3.93;1.20;;;-0.10;99.90;;;;;;5015174;28;20171;-84
2023/03/12 02:05:28;;;;;;;3.90;1.50;;;-0.10;99.90;;;;;;5015322;28;20167;-84
2023/03/12 02:07:56;;;;;;;2.07;1.00;;;-0.10;99.90;;;;;;5014657;28;20175;-85
2023/03/12 02:10:22;;;;;;;2.07;1.50;;;-0.10;99.90;;;;;;5014758;28;20246;-85
2023/03/12 02:12:48;;;;;;;2.97;1.43;;;-0.20;99.90;;;;;;5014848;28;20175;-85
2023/03/12 02:15:14;;;;;;;2.37;1.10;;;-0.20;99.90;;;;;;5014932;28;20187;-85
2023/03/12 02:17:40;;;;;;;5.53;1.50;;;-0.20;99.90;;;;;;5014899;28;20313;-85
2023/03/12 02:20:24;;;;;;;2.87;1.07;;;-0.20;99.90;;;;;;5015382;28;20228;-85
2023/03/12 02:23:11;;;;;;;4.10;1.37;;;-0.20;99.90;;;;;;5014590;28;20610;-85
2023/03/12 02:25:43;;;;;;;2.10;1.40;;;-0.20;99.90;;;;;;5014853;28;20180;-85
2023/03/12 02:28:12;;;;;;;3.23;1.47;;;-0.20;99.90;;;;;;5014756;28;20578;-85
2023/03/12 02:30:42;;;;;;;1.87;1.10;;;-0.20;99.90;;;;;;5014015;28;20564;-84
2023/03/12 02:33:12;;;;;;;5.70;1.20;;;-0.30;99.90;;;;;;5014457;28;20179;-85
2023/03/12 02:35:37;;;;;;;3.67;1.17;;;-0.30;99.90;;;;;;5014355;28;20175;-85
2023/03/12 02:38:36;;;;;;;3.77;1.27;;;-0.30;99.90;;;;;;5014615;28;20201;-85
2023/03/12 02:41:12;;;;;;;1.87;1.30;;;-0.30;99.90;;;;;;5014455;28;20167;-85
2023/03/12 02:43:39;;;;;;;2.47;1.03;;;-0.30;99.90;;;;;;5014158;28;20197;-86
2023/03/12 02:46:07;;;;;;;2.87;1.20;;;-0.30;99.90;;;;;;5014146;28;20175;-85
2023/03/12 02:48:33;;;;;;;8.13;1.33;;;-0.30;99.90;;;;;;5014459;28;20203;-85
2023/03/12 02:50:59;;;;;;;4.90;0.90;;;-0.30;99.90;;;;;;5014569;28;20186;-85
2023/03/12 02:53:24;;;;;;;2.67;1.20;;;-0.40;99.90;;;;;;5014296;28;20179;-85
2023/03/12 02:55:50;;;;;;;1.97;1.10;;;-0.30;99.90;;;;;;5014240;28;20179;-85
2023/03/12 02:58:16;;;;;;;3.23;1.17;;;-0.40;99.90;;;;;;5014198;28;20642;-85
2023/03/12 03:00:41;;;;;;;1.53;1.10;;;-0.40;99.90;;;;;;5013865;28;20185;-86
2023/03/12 03:03:07;;;;;;;3.50;1.20;;;-0.40;99.90;;;;;;5014278;28;20640;-85
2023/03/12 03:05:35;;;;;;;6.53;1.40;;;-0.50;99.90;;;;;;5014196;28;20175;-85
2023/03/12 03:08:02;;;;;;;2.90;1.10;;;-0.50;99.90;;;;;;5014081;28;20542;-86
2023/03/12 03:10:27;;;;;;;4.57;1.20;;;-0.50;99.90;;;;;;5013781;28;20194;-86
2023/03/12 03:12:53;;;;;;;2.37;0.97;;;-0.60;99.90;;;;;;5013943;28;20182;-85
2023/03/12 03:15:19;;;;;;;1.90;1.27;;;-0.60;99.90;;;;;;5013665;28;20598;-86
2023/03/12 03:17:44;;;;;;;6.60;1.70;;;-0.60;99.90;;;;;;5015045;28;20182;-86
2023/03/12 03:20:10;;;;;;;2.13;1.27;;;-0.60;99.90;;;;;;5013871;28;20243;-85
2023/03/12 03:22:37;;;;;;;5.67;1.37;;;-0.60;99.90;;;;;;5013726;28;20266;-86
2023/03/12 03:25:05;;;;;;;2.27;1.10;;;-0.60;99.90;;;;;;5015016;28;20182;-85
2023/03/12 03:27:31;;;;;;;2.97;1.40;;;-0.60;99.90;;;;;;5013691;28;20175;-85
2023/03/12 03:29:56;;;;;;;4.83;1.37;;;-0.60;99.90;;;;;;5013036;28;20241;-84
2023/03/12 03:32:22;;;;;;;3.77;1.30;;;-0.60;99.90;;;;;;5014879;28;20701;-86
2023/03/12 03:34:48;;;;;;;1.83;1.00;;;-0.60;99.90;;;;;;4997364;28;20676;-85
2023/03/12 03:37:13;;;;;;;3.27;1.30;;;-0.60;99.90;;;;;;4997173;28;20221;-85
2023/03/12 03:39:39;;;;;;;3.53;1.50;;;-0.60;99.90;;;;;;4997008;28;20193;-87
2023/03/12 03:42:05;;;;;;;2.37;1.07;;;-0.60;99.90;;;;;;4997012;28;20206;-86
2023/03/12 03:44:30;;;;;;;1.77;1.20;;;-0.70;99.90;;;;;;4996881;28;20186;-85
2023/03/12 03:46:56;;;;;;;3.30;1.50;;;-0.70;99.90;;;;;;4997082;28;20179;-86
2023/03/12 03:49:22;;;;;;;2.33;1.30;;;-0.70;99.90;;;;;;4996732;28;20230;-85
2023/03/12 03:51:50;;;;;;;3.10;1.50;;;-0.70;99.90;;;;;;4996924;28;20175;-85
2023/03/12 03:54:16;;;;;;;6.50;1.83;;;-0.70;99.90;;;;;;4996962;28;20625;-86
2023/03/12 03:56:42;;;;;;;4.97;1.43;;;-0.70;99.90;;;;;;4996120;28;20274;-85
2023/03/12 03:59:08;;;;;;;5.73;1.70;;;-0.70;99.90;;;;;;4996558;28;20266;-85
2023/03/12 04:01:35;;;;;;;4.10;1.83;;;-0.70;99.90;;;;;;4996622;28;20191;-85
2023/03/12 04:04:01;;;;;;;4.07;1.83;;;-0.70;99.90;;;;;;4996735;28;20229;-86
2023/03/12 04:06:28;;;;;;;3.03;1.37;;;-0.70;99.90;;;;;;4995935;28;20529;-85
2023/03/12 04:08:55;;;;;;;3.27;1.70;;;-0.80;99.90;;;;;;4996325;28;20226;-85
2023/03/12 04:11:21;;;;;;;6.03;1.60;;;-0.80;99.90;;;;;;4996479;28;20200;-85
2023/03/12 04:13:47;;;;;;;4.80;1.30;;;-0.80;99.90;;;;;;4995685;28;20209;-86
2023/03/12 04:16:13;;;;;;;3.07;1.50;;;-0.80;99.90;;;;;;4996643;28;20185;-85
2023/03/12 04:18:39;;;;;;;2.93;1.27;;;-0.80;99.90;;;;;;4996710;28;20257;-87
2023/03/12 04:21:08;;;;;;;2.80;1.43;;;-0.80;99.90;;;;;;4996062;28;20278;-85
2023/03/12 04:23:34;;;;;;;3.27;1.70;;;-0.90;99.90;;;;;;4996182;28;20183;-85
2023/03/12 04:26:00;;;;;;;3.80;1.60;;;-0.90;99.90;;;;;;5014392;28;20179;-86
2023/03/12 04:28:25;;;;;;;2.80;1.17;;;-0.90;99.90;;;;;;4996260;28;20653;-87
2023/03/12 04:30:59;;;;;;;3.53;1.63;;;-0.90;99.90;;;;;;5003509;28;20245;-88
2023/03/12 04:33:27;;;;;;;2.10;1.30;;;-0.90;99.90;;;;;;5012858;28;20179;-86
2023/03/12 04:35:53;;;;;;;4.73;1.53;;;-0.90;99.90;;;;;;5012429;28;20190;-86
2023/03/12 04:38:23;;;;;;;2.50;1.40;;;-1.00;99.90;;;;;;5014053;28;20198;-86
2023/03/12 04:41:03;;;;;;;3.13;1.40;;;-1.00;99.90;;;;;;5013903;28;20183;-86
2023/03/12 04:43:30;;;;;;;4.40;1.30;;;-1.00;99.90;;;;;;5013014;28;20221;-86
2023/03/12 04:45:57;;;;;;;3.33;1.53;;;-1.00;99.90;;;;;;5012729;28;20180;-85
2023/03/12 04:48:23;;;;;;;2.60;1.47;;;-1.00;99.90;;;;;;5012574;28;20187;-85
2023/03/12 04:50:49;;;;;;;4.57;1.33;;;-1.00;99.90;;;;;;5012518;28;20198;-87
2023/03/12 04:53:15;;;;;;;6.03;1.43;;;-1.10;99.90;;;;;;5012326;28;20175;-86
2023/03/12 04:55:41;;;;;;;1.77;1.30;;;-1.10;99.90;;;;;;5012949;28;20185;-86
2023/03/12 04:58:06;;;;;;;5.03;1.90;;;-1.10;99.90;;;;;;5012795;28;20175;-86
2023/03/12 05:00:32;;;;;;;2.47;1.50;;;-1.10;99.90;;;;;;5012534;28;20195;-86
2023/03/12 05:02:58;;;;;;;5.60;1.50;;;-1.20;99.90;;;;;;5012423;28;20190;-86
2023/03/12 05:05:24;;;;;;;4.63;1.63;;;-1.20;99.90;;;;;;5012727;28;20195;-85
2023/03/12 05:07:49;;;;;;;4.40;1.40;;;-1.20;99.90;;;;;;5012560;28;20179;-86
2023/03/12 05:10:15;;;;;;;2.27;1.23;;;-1.20;99.90;;;;;;5016218;28;20214;-85
2023/03/12 05:12:41;;;;;;;5.20;1.97;;;-1.20;99.90;;;;;;5016037;28;20175;-86
2023/03/12 05:15:07;;;;;;;3.53;1.60;;;-1.20;99.90;;;;;;5016198;28;20194;-86
2023/03/12 05:17:33;;;;;;;5.03;1.50;;;-1.20;99.90;;;;;;5016155;28;20183;-86
2023/03/12 05:19:58;;;;;;;3.10;1.57;;;-1.20;99.90;;;;;;5015791;28;20171;-86
2023/03/12 05:22:24;;;;;;;2.53;1.43;;;-1.30;99.90;;;;;;5015257;28;20179;-87
2023/03/12 05:24:50;;;;;;;2.60;1.20;;;-1.20;99.90;;;;;;5016082;28;20183;-87
2023/03/12 05:27:15;;;;;;;2.30;1.37;;;-1.20;99.90;;;;;;5016463;28;20633;-86
2023/03/12 05:29:41;;;;;;;2.50;1.20;;;-1.20;99.90;;;;;;5015634;28;20309;-86
2023/03/12 05:32:07;;;;;;;4.43;1.50;;;-1.20;99.90;;;;;;4999543;28;20234;-86
2023/03/12 05:34:33;;;;;;;3.43;1.50;;;-1.20;99.90;;;;;;4998272;28;20564;-86
2023/03/12 05:36:59;;;;;;;5.30;1.47;;;-1.30;99.90;;;;;;4999501;28;20175;-88
2023/03/12 05:39:26;;;;;;;4.00;1.60;;;-1.30;99.90;;;;;;5016880;28;20194;-86
2023/03/12 05:41:56;;;;;;;4.57;1.10;;;-1.30;99.90;;;;;;4999364;28;20584;-86
2023/03/12 05:44:23;;;;;;;2.57;1.33;;;-1.20;99.90;;;;;;4999307;28;20198;-86
2023/03/12 05:46:49;;;;;;;2.43;1.37;;;-1.30;99.90;;;;;;4999371;28;20203;-86
2023/03/12 05:49:15;;;;;;;2.47;1.33;;;-1.20;99.90;;;;;;4999449;28;20381;-87
2023/03/12 05:51:42;;;;;;;2.87;1.40;;;-1.30;99.90;;;;;;4999066;28;20678;-87
2023/03/12 05:54:08;;;;;;;2.90;1.37;;;-1.20;99.90;;;;;;4999285;28;20513;-87
2023/03/12 05:56:35;;;;;;;2.23;1.20;;;-1.20;99.90;;;;;;4999127;28;20183;-88
2023/03/12 05:59:01;;;;;;;2.20;1.47;;;-1.20;99.90;;;;;;4999057;28;20190;-86
2023/03/12 06:01:28;;;;;;;2.33;1.50;;;-1.20;99.90;;;;;;4998878;28;20178;-87
2023/03/12 06:03:55;;;;;;;2.17;1.20;;;-1.20;99.90;;;;;;4999105;28;20179;-88
2023/03/12 06:06:20;;;;;;;2.73;1.33;;;-1.10;99.90;;;;;;4998788;28;20258;-87
2023/03/12 06:08:46;;;;;;;2.20;1.43;;;-1.10;99.90;;;;;;4998800;28;20297;-87
2023/03/12 06:11:12;;;;;;;2.83;1.20;;;-1.00;99.90;;;;;;4998962;28;20191;-87
2023/03/12 06:13:38;;;;;;;2.93;1.33;;;-1.00;99.90;;;;;;4998657;28;20241;-87
2023/03/12 06:16:06;;;;;;;5.60;1.90;;;-0.90;99.90;;;;;;4999073;28;20610;-86
2023/03/12 06:18:33;;;;;;;10.53;2.23;;;-0.90;99.90;;;;;;4998317;28;20183;-88
2023/03/12 06:21:14;;;;;;;4.03;1.60;;;-0.90;99.90;;;;;;4997884;28;20185;-86
2023/03/12 06:23:41;;;;;;;6.87;1.70;;;-0.80;99.90;;;;;;4998795;28;20206;-87
2023/03/12 06:26:07;;;;;;;4.60;1.70;;;-0.80;99.90;;;;;;5016202;28;20163;-87
2023/03/12 06:28:34;;;;;;;5.30;1.77;;;-0.70;99.90;;;;;;4998482;28;20227;-87
2023/03/12 06:31:00;;;;;;;2.57;1.40;;;-0.60;99.90;;;;;;5006726;28;20575;-86
2023/03/12 06:33:25;;;;;;;4.00;1.57;;;-0.60;99.90;;;;;;5014634;28;20177;-85
2023/03/12 06:35:56;;;;;;;2.87;1.50;;;-0.50;99.90;;;;;;5014505;28;20630;-85
2023/03/12 06:38:22;;;;;;;5.27;1.43;;;-0.50;99.90;;;;;;5014510;28;20183;-87
2023/03/12 06:41:00;;;;;;;4.53;1.47;;;-0.50;99.90;;;;;;5014434;28;20263;-86
2023/03/12 06:43:28;;;;;;;4.33;1.80;;;-0.30;99.90;;;;;;5014474;28;20175;-86
2023/03/12 06:45:55;;;;;;;5.03;1.73;;;-0.30;99.90;;;;;;5014577;28;20205;-86
2023/03/12 06:48:21;;;;;;;3.90;1.83;;;-0.20;99.90;;;;;;5014237;28;20179;-85
2023/03/12 06:50:47;;;;;;;5.97;1.70;;;-0.10;99.90;;;;;;5014345;28;20190;-86
2023/03/12 06:53:13;;;;;;;4.77;1.97;;;-0.10;99.90;;;;;;5014089;28;20179;-86
2023/03/12 06:55:38;;;;;;;2.80;1.47;;;0.00;99.90;;;;;;5014496;28;20179;-85
2023/03/12 06:58:04;;;;;;;3.70;1.90;;;0.10;99.90;;;;;;5015504;28;20188;-86
2023/03/12 07:00:31;;;;;;;3.57;1.50;;;0.10;99.90;;;;;;5013893;28;20555;-91
2023/03/12 07:02:57;;;;;;;4.60;1.40;;;0.20;99.90;;;;;;5014299;28;20258;-86
2023/03/12 07:05:23;;;;;;;2.00;1.30;;;0.30;99.90;;;;;;5015260;28;20266;-85
2023/03/12 07:07:50;;;;;;;3.77;1.60;;;0.30;99.90;;;;;;5013665;28;20183;-89
2023/03/12 07:10:16;;;;;;;2.50;1.60;;;0.40;99.90;;;;;;5015155;28;20214;-86
2023/03/12 07:12:43;;;;;;;3.00;1.57;;;0.50;99.90;;;;;;5012620;28;20309;-85
2023/03/12 07:15:09;;;;;;;2.37;1.60;;;0.50;99.90;;;;;;5013724;28;20232;-84
2023/03/12 07:17:35;;;;;;;4.77;2.00;;;0.50;99.90;;;;;;5013828;28;20506;-85
2023/03/12 07:20:00;;;;;;;4.57;1.40;;;0.60;99.90;;;;;;5014411;28;20242;-85
2023/03/12 07:22:26;;;;;;;3.10;1.80;;;0.60;99.90;;;;;;5013493;28;20698;-85
2023/03/12 07:24:52;;;;;;;5.83;1.77;;;0.70;99.90;;;;;;5015460;28;20193;-84
2023/03/12 07:27:17;;;;;;;3.93;1.50;;;0.70;99.90;;;;;;5014879;28;20167;-85
2023/03/12 07:29:43;;;;;;;2.87;1.53;;;0.80;99.90;;;;;;5014746;28;20207;-85
2023/03/12 07:32:09;;;;;;;3.50;1.80;;;0.90;99.90;;;;;;4996621;28;20653;-85
2023/03/12 07:34:35;;;;;;;4.70;1.80;;;0.90;99.90;;;;;;4997288;28;20186;-84
2023/03/12 07:37:00;;;;;;;5.73;1.57;;;1.00;99.90;;;;;;4996804;28;20680;-85
2023/03/12 07:39:26;;;;;;;3.57;1.73;;;1.10;99.90;;;;;;4996984;28;20608;-85
2023/03/12 07:41:52;;;;;;;3.40;1.63;;;1.20;99.90;;;;;;4996884;28;20210;-84
2023/03/12 07:44:17;;;;;;;2.00;1.43;;;1.40;99.90;;;;;;4996696;28;20525;-83
2023/03/12 07:46:43;;;;;;;3.03;1.63;;;1.60;99.90;;;;;;4996815;28;20213;-84
2023/03/12 07:49:09;;;;;;;4.93;1.40;;;1.80;99.90;;;;;;4996671;28;20353;-85
2023/03/12 07:51:34;;;;;;;2.07;1.47;;;1.90;99.90;;;;;;5013821;28;20623;-85
2023/03/12 07:54:00;;;;;;;3.60;1.67;;;1.90;99.90;;;;;;4996891;28;20188;-84
2023/03/12 07:56:26;;;;;;;6.00;1.30;;;2.00;99.90;;;;;;5014317;28;20234;-84
2023/03/12 07:58:51;;;;;;;1.87;1.17;;;1.90;99.90;;;;;;5014245;28;20652;-84
2023/03/12 08:01:17;;;;;;;3.30;1.50;;;1.90;99.90;;;;;;5014069;28;20202;-83
2023/03/12 08:03:43;;;;;;;2.53;1.33;;;1.90;99.90;;;;;;4985637;28;20187;-83
2023/03/12 08:06:08;;;;;;;5.23;1.57;;;1.90;99.90;;;;;;4976627;28;20245;-83
2023/03/12 08:08:36;;;;;;;3.90;1.30;;;2.00;99.90;;;;;;4976222;28;20737;-83
2023/03/12 08:11:04;;;;;;;2.57;1.40;;;2.00;99.90;;;;;;4989253;28;20286;-83
2023/03/12 08:13:30;;;;;;;5.47;1.77;;;2.00;99.90;;;;;;4993488;28;20211;-83
2023/03/12 08:15:56;;;;;;;4.13;1.50;;;2.10;99.90;;;;;;4994181;28;20191;-82
2023/03/12 08:18:23;;;;;;;3.33;1.90;;;2.20;99.90;;;;;;4987478;28;20180;-83
2023/03/12 08:20:50;;;;;;;4.27;1.60;;;2.30;99.90;;;;;;4984518;28;20286;-83
2023/03/12 08:23:17;;;;;;;3.80;1.40;;;2.40;99.90;;;;;;4994020;28;20179;-83
2023/03/12 08:25:47;;;;;;;3.17;1.70;;;2.40;99.90;;;;;;4994505;28;20187;-83
2023/03/12 08:28:14;;;;;;;3.87;1.70;;;2.40;99.90;;;;;;4995217;28;20186;-83
2023/03/12 08:30:51;;;;;;;4.03;1.50;;;2.40;99.90;;;;;;4992357;28;20239;-84
2023/03/12 08:33:16;;;;;;;5.40;1.50;;;2.50;99.90;;;;;;5011988;28;20233;-84
2023/03/12 08:35:42;;;;;;;2.93;1.40;;;2.50;99.90;;;;;;5011759;28;20183;-83
2023/03/12 08:38:08;;;;;;;3.37;1.50;;;2.60;99.90;;;;;;5011742;28;20180;-83
2023/03/12 08:40:34;;;;;;;5.10;1.90;;;2.70;99.90;;;;;;5012269;28;20186;-84
2023/03/12 08:43:00;;;;;;;3.93;1.23;;;2.80;99.90;;;;;;5012675;28;20183;-84
2023/03/12 08:45:25;;;;;;;5.23;1.40;;;2.80;99.90;;;;;;5015524;28;20610;-83
2023/03/12 08:47:51;;;;;;;2.07;1.57;;;2.90;99.90;;;;;;5015551;28;20163;-83
2023/03/12 08:50:19;;;;;;;3.63;1.70;;;2.90;99.90;;;;;;5015269;28;20211;-83
2023/03/12 08:52:44;;;;;;;3.57;1.33;;;3.00;99.90;;;;;;5014869;28;20198;-83
2023/03/12 08:55:11;;;;;;;6.63;1.40;;;3.10;99.90;;;;;;5012336;28;20187;-84
2023/03/12 08:57:37;;;;;;;2.90;1.13;;;3.20;99.90;;;;;;5014628;28;20184;-83
2023/03/12 09:00:05;;;;;;;8.77;1.40;;;3.20;99.90;;;;;;5014302;28;20183;-83
2023/03/12 09:02:32;;;;;;;6.00;1.60;;;3.30;99.90;;;;;;5015359;28;20183;-83
2023/03/12 09:04:57;;;;;;;4.97;1.50;;;3.30;99.90;;;;;;5016223;28;20184;-84
2023/03/12 09:07:23;;;;;;;5.90;1.70;;;3.40;99.90;;;;;;5015027;28;20190;-83
2023/03/12 09:09:48;;;;;;;2.73;1.50;;;3.50;99.90;;;;;;5015371;28;20211;-84
2023/03/12 09:12:14;;;;;;;2.70;1.20;;;3.50;99.90;;;;;;5014701;28;20187;-85
2023/03/12 09:14:40;;;;;;;2.77;1.30;;;3.50;99.90;;;;;;5015261;28;20187;-85
2023/03/12 09:17:06;;;;;;;3.50;1.27;;;3.50;99.90;;;;;;5014800;28;20182;-84
2023/03/12 09:19:31;;;;;;;4.20;1.20;;;3.50;99.90;;;;;;5013107;28;20183;-84
2023/03/12 09:21:57;;;;;;;3.77;1.43;;;3.60;99.90;;;;;;5014579;28;20187;-84
2023/03/12 09:24:23;;;;;;;2.60;1.30;;;3.60;99.90;;;;;;5008502;28;20700;-85
2023/03/12 09:26:49;;;;;;;4.87;1.10;;;3.70;99.90;;;;;;5014114;28;20278;-85
2023/03/12 09:29:15;;;;;;;3.67;1.30;;;3.80;99.90;;;;;;5013197;28;20285;-83
2023/03/12 09:31:40;;;;;;;3.00;1.33;;;3.90;99.90;;;;;;5014372;28;20563;-83
2023/03/12 09:34:06;;;;;;;4.37;1.07;;;4.00;99.90;;;;;;5013981;28;20178;-84
2023/03/12 09:36:32;;;;;;;3.27;1.43;;;4.10;99.90;;;;;;5014509;28;20187;-83
2023/03/12 09:38:58;;;;;;;1.63;0.93;;;4.20;99.90;;;;;;5014058;28;20187;-83
2023/03/12 09:41:30;;;;;;;1.97;1.20;;;4.30;99.90;;;;;;5013646;28;20183;-84
2023/03/12 09:44:22;;;;;;;2.57;0.90;;;4.30;99.90;;;;;;5013023;28;20685;-85
2023/03/12 09:47:20;;;;;;;6.60;1.10;;;4.30;99.90;;;;;;5003176;28;20194;-83
2023/03/12 09:49:55;;;;;;;5.87;1.00;;;4.40;99.90;;;;;;5004861;28;20309;-84
2023/03/12 09:52:24;;;;;;;3.00;0.97;;;4.50;99.90;;;;;;5001471;28;20178;-84
2023/03/12 09:55:13;;;;;;;3.20;1.10;;;4.50;99.90;;;;;;5012375;28;20612;-83
2023/03/12 09:57:39;;;;;;;2.80;1.07;;;4.60;99.90;;;;;;5013942;28;20171;-85
2023/03/12 10:00:11;;;;;;;3.33;0.93;;;4.80;99.90;;;;;;5012517;28;20210;-83
2023/03/12 10:02:59;;;;;;;3.33;1.13;;;4.70;99.90;;;;;;5011087;28;20178;-83
2023/03/12 10:05:40;;;;;;;4.33;1.10;;;4.80;99.90;;;;;;5011072;28;20214;-84
2023/03/12 10:08:20;;;;;;;3.07;1.10;;;4.80;99.90;;;;;;5014321;28;20160;-84
2023/03/12 10:10:57;;;;;;;3.57;1.20;;;4.90;99.90;;;;;;5010244;28;20210;-83
2023/03/12 10:14:05;;;;;;;4.70;1.43;;;4.80;99.90;;;;;;5028912;28;20186;-85
2023/03/12 10:16:49;;;;;;;4.03;1.17;;;4.80;99.90;;;;;;5013244;28;20233;-82
2023/03/12 10:19:46;;;;;;;2.03;0.80;;;4.80;99.90;;;;;;5009809;28;20281;-82
2023/03/12 10:22:36;;;;;;;2.80;0.97;;;4.80;99.90;;;;;;5019724;28;20210;-83
2023/03/12 10:25:23;;;;;;;5.80;0.80;;;4.90;99.90;;;;;;5010291;28;20283;-82
2023/03/12 10:27:49;;;;;;;3.43;0.97;;;4.90;99.90;;;;;;5014393;28;20175;-82
2023/03/12 10:30:22;;;;;;;2.73;0.80;;;4.90;99.90;;;;;;5013485;28;20697;-84
2023/03/12 10:33:05;;;;;;;3.47;0.93;;;4.90;99.90;;;;;;5014199;28;20958;-84
2023/03/12 10:35:32;;;;;;;4.93;1.20;;;5.10;99.90;;;;;;5015544;28;20172;-85
2023/03/12 10:38:04;;;;;;;6.23;1.30;;;5.20;99.90;;;;;;5014177;28;20590;-83
2023/03/12 10:40:35;;;;;;;4.23;1.07;;;5.10;99.90;;;;;;5015004;28;20183;-82
2023/03/12 10:43:02;;;;;;;3.07;0.93;;;5.20;99.90;;;;;;5013865;28;20179;-83
2023/03/12 10:45:54;;;;;;;5.70;1.40;;;5.10;99.90;;;;;;5013356;28;20270;-83
2023/03/12 10:48:23;;;;;;;2.47;1.07;;;5.10;99.90;;;;;;5013885;28;20226;-85
2023/03/12 10:51:05;;;;;;;9.20;1.70;;;5.10;99.90;;;;;;4998871;28;20180;-83
2023/03/12 10:53:38;;;;;;;1.57;0.90;;;5.10;99.90;;;;;;4994664;28;20180;-84
2023/03/12 10:56:12;;;;;;;4.37;1.10;;;4.90;99.90;;;;;;5009751;28;20684;-86
2023/03/12 10:58:44;;;;;;;4.50;1.20;;;4.80;99.90;;;;;;5013030;28;20183;-83
2023/03/12 11:01:28;;;;;;;4.70;1.03;;;4.80;99.90;;;;;;5013210;28;20198;-86
2023/03/12 11:04:20;;;;;;;3.53;1.00;;;4.80;99.90;;;;;;5012005;28;20191;-83
2023/03/12 11:07:15;;;;;;;5.83;1.33;;;4.80;99.90;;;;;;5006327;28;20188;-85
2023/03/12 11:09:40;;;;;;;5.93;1.40;;;4.70;99.90;;;;;;5006707;28;20309;-84
2023/03/12 11:12:26;;;;;;;3.83;1.40;;;4.50;99.90;;;;;;5013803;28;20257;-84
2023/03/12 11:14:52;;;;;;;2.07;1.10;;;4.50;99.90;;;;;;4994300;28;20180;-85
2023/03/12 11:17:27;;;;;;;2.30;1.10;;;4.60;99.90;;;;;;4994139;28;20505;-86
2023/03/12 11:19:53;;;;;;;3.67;1.10;;;4.50;99.90;;;;;;4994027;28;20183;-84
2023/03/12 11:22:33;;;;;;;6.93;1.50;;;4.50;99.90;;;;;;4993847;28;20242;-85
2023/03/12 11:25:05;;;;;;;4.13;1.23;;;4.60;99.90;;;;;;4994228;28;20180;-85
2023/03/12 11:27:42;;;;;;;2.37;1.00;;;4.60;99.90;;;;;;4995037;28;20183;-85
2023/03/12 11:30:14;;;;;;;2.23;1.37;;;4.60;99.90;;;;;;4992134;28;20378;-86
2023/03/12 11:32:44;;;;;;;3.17;1.37;;;4.50;99.90;;;;;;4995305;28;20187;-87
2023/03/12 11:35:12;;;;;;;4.33;1.37;;;4.50;99.90;;;;;;4977927;28;20187;-85
2023/03/12 11:38:15;;;;;;;1.97;1.10;;;4.50;99.90;;;;;;4968710;28;20227;-86
2023/03/12 11:41:23;;;;;;;2.37;1.20;;;4.40;99.90;;;;;;4963594;28;20194;-87
2023/03/12 11:44:17;;;;;;;2.97;1.20;;;4.40;99.90;;;;;;4967091;28;20191;-87
2023/03/12 11:47:07;;;;;;;5.53;1.43;;;4.30;99.90;;;;;;4969462;28;20258;-87
2023/03/12 11:49:36;;;;;;;2.93;1.40;;;4.20;99.90;;;;;;4964219;28;20227;-87
2023/03/12 11:52:22;;;;;;;2.30;1.00;;;4.30;99.90;;;;;;4970952;28;20624;-88
2023/03/12 11:55:35;;;;;;;3.83;0.90;;;4.30;99.90;;;;;;4977828;28;20191;-91
2023/03/12 11:58:43;;;;;;;4.03;1.07;;;4.30;99.90;;;;;;4953758;29;20287;-87
2023/03/12 12:01:35;;;;;;;3.33;1.10;;;4.40;99.90;;;;;;4967255;28;20239;-88
2023/03/12 12:04:19;;;;;;;8.57;1.80;;;4.40;99.90;;;;;;4987359;28;20194;-88
2023/03/12 12:07:16;;;;;;;1.63;1.13;;;4.50;99.90;;;;;;4973508;28;20193;-88
2023/03/12 12:10:01;;;;;;;3.23;0.80;;;4.60;99.90;;;;;;4968430;28;20215;-88
2023/03/12 12:13:05;;;;;;;2.43;0.80;;;4.50;99.90;;;;;;4974237;28;20183;-87
2023/03/12 12:15:40;;;;;;;4.20;0.80;;;4.50;99.90;;;;;;4989648;28;20191;-91
2023/03/12 12:18:59;;;;;;;2.30;0.97;;;4.40;99.90;;;;;;4971676;28;20524;-92
2023/03/12 12:21:50;;;;;;;2.97;1.00;;;4.40;99.90;;;;;;4986554;28;20198;-89
2023/03/12 12:24:49;;;;;;;12.43;0.80;;;4.30;99.90;;;;;;4970236;28;20520;-90
2023/03/12 12:27:26;;;;;;;1.87;0.60;;;4.30;99.90;;;;;;4965513;28;20648;-92
2023/03/12 12:30:11;;;;;;;1.80;0.83;;;4.30;99.90;;;;;;4973413;28;20211;-88
2023/03/12 12:33:02;;;;;;;4.77;1.10;;;4.20;99.90;;;;;;4989076;28;20666;-90
2023/03/12 12:35:39;;;;;;;2.97;0.90;;;4.20;99.90;;;;;;4988789;28;20218;-90
2023/03/12 12:38:29;;;;;;;1.77;0.80;;;4.10;99.90;;;;;;4985414;28;20199;-89
2023/03/12 12:41:15;;;;;;;2.47;0.87;;;4.10;99.90;;;;;;4996838;28;20195;-91
2023/03/12 12:43:50;;;;;;;3.50;0.87;;;4.20;99.90;;;;;;5007679;28;20194;-90
2023/03/12 12:46:22;;;;;;;6.07;1.10;;;4.10;99.90;;;;;;4989982;28;20272;-89
2023/03/12 12:49:02;;;;;;;4.10;1.13;;;4.00;99.90;;;;;;4996106;28;20226;-89
2023/03/12 12:51:38;;;;;;;1.00;0.80;;;3.80;99.90;;;;;;4991298;28;20175;-90
2023/03/12 12:54:17;;;;;;;2.37;1.20;;;3.90;99.90;;;;;;4995711;28;20197;-89
2023/03/12 12:57:12;;;;;;;1.20;0.83;;;3.90;99.90;;;;;;4993146;28;20191;-89
2023/03/12 12:59:54;;;;;;;1.97;0.90;;;3.90;99.90;;;;;;4981617;28;20337;-89
2023/03/12 13:02:25;;;;;;;1.10;0.90;;;3.90;99.90;;;;;;4995646;28;20498;-89
2023/03/12 13:04:55;;;;;;;1.17;0.83;;;3.90;99.90;;;;;;4983447;28;20191;-90
2023/03/12 13:07:22;;;;;;;1.33;0.90;;;3.90;99.90;;;;;;4985750;28;20183;-91
2023/03/12 13:09:53;;;;;;;3.37;1.07;;;3.90;99.90;;;;;;4992396;28;20215;-90
2023/03/12 13:12:51;;;;;;;1.50;1.00;;;3.80;99.90;;;;;;4985339;28;20191;-89